Time;durP1;ratioP1;P1;durP2;ratioP2;P2;SDS_P1;SDS_P2;PMS_P1;PMS_P2;Temp;Humidity;BMP_temperature;BMP_pressure;BME280_temperature;BME280_humidity;BME280_pressure;Samples;Min_cycle;Max_cycle;Signal;HPM_P1;HPM_P2
2023/06/14 00:01:06;;;;;;;0.00;0.00;;;14.20;99.90;;;;;;5054652;28;20109;-88
2023/06/14 00:03:31;;;;;;;0.20;0.10;;;13.70;99.90;;;;;;5052817;28;20076;-88
2023/06/14 00:05:57;;;;;;;0.05;0.05;;;13.30;99.90;;;;;;5052068;28;20041;-89
2023/06/14 00:08:24;;;;;;;0.00;0.00;;;12.60;99.90;;;;;;5051905;28;20167;-89
2023/06/14 00:10:50;;;;;;;0.10;0.10;;;12.60;99.90;;;;;;5053103;28;20073;-88
2023/06/14 00:13:16;;;;;;;0.10;0.10;;;12.60;99.90;;;;;;5052129;28;20099;-89
2023/06/14 00:15:42;;;;;;;0.35;0.32;;;12.40;99.90;;;;;;5053798;28;20388;-88
2023/06/14 00:18:11;;;;;;;2.60;0.20;;;13.80;99.90;;;;;;5053818;28;20081;-88
2023/06/14 00:20:41;;;;;;;0.32;0.25;;;12.40;1.00;;;;;;5055869;28;20071;-88
2023/06/14 00:23:09;;;;;;;0.00;0.00;;;12.20;99.90;;;;;;5064381;28;20055;-89
2023/06/14 00:25:35;;;;;;;1.13;0.80;;;13.20;99.90;;;;;;5054610;28;20056;-89
2023/06/14 00:28:03;;;;;;;0.08;0.08;;;12.30;99.90;;;;;;5054312;28;20045;-89
2023/06/14 00:30:30;;;;;;;0.22;0.20;;;12.30;99.90;;;;;;5054820;28;20436;-90
2023/06/14 00:32:56;;;;;;;0.35;0.20;;;12.40;99.90;;;;;;5055418;28;20049;-88
2023/06/14 00:35:22;;;;;;;0.13;0.10;;;12.30;99.90;;;;;;5053940;28;20049;-89
2023/06/14 00:37:48;;;;;;;0.73;0.35;;;12.10;1.00;;;;;;5055050;28;20515;-89
2023/06/14 00:40:14;;;;;;;0.03;0.03;;;13.50;99.90;;;;;;5054526;28;20041;-88
2023/06/14 00:42:39;;;;;;;0.00;0.00;;;12.10;1.00;;;;;;5053939;28;20102;-89
2023/06/14 00:45:06;;;;;;;0.00;0.00;;;12.10;1.00;;;;;;5052152;28;20071;-89
2023/06/14 00:47:31;;;;;;;1.92;0.45;;;11.90;2.00;;;;;;5035252;28;20053;-89
2023/06/14 00:50:00;;;;;;;0.47;0.35;;;12.50;99.90;;;;;;5054401;28;20045;-88
2023/06/14 00:52:25;;;;;;;0.90;0.65;;;11.80;99.90;;;;;;5035651;28;20055;-89
2023/06/14 00:54:51;;;;;;;0.00;0.00;;;11.80;1.00;;;;;;5054277;28;20049;-89
2023/06/14 00:57:17;;;;;;;0.00;0.00;;;11.50;16.20;;;;;;5053826;28;20071;-89
2023/06/14 00:59:48;;;;;;;0.00;0.00;;;12.40;1.00;;;;;;5052229;28;20055;-89
2023/06/14 01:02:15;;;;;;;0.73;0.73;;;11.50;99.90;;;;;;5053192;28;20051;-89
2023/06/14 01:04:45;;;;;;;0.32;0.20;;;11.40;99.90;;;;;;5054105;28;20132;-89
2023/06/14 01:07:13;;;;;;;0.00;0.00;;;11.90;99.90;;;;;;5037810;28;20503;-89
2023/06/14 01:09:54;;;;;;;1.27;0.35;;;11.30;99.90;;;;;;5055221;28;20064;-89
2023/06/14 01:12:53;;;;;;;0.05;0.05;;;11.20;99.90;;;;;;5055241;28;20148;-89
2023/06/14 01:15:21;;;;;;;0.10;0.10;;;11.20;99.90;;;;;;5053486;28;20059;-89
2023/06/14 01:17:51;;;;;;;0.08;0.08;;;11.20;99.90;;;;;;5055161;28;20044;-89
2023/06/14 01:20:19;;;;;;;0.00;0.00;;;11.80;99.90;;;;;;5053730;28;20035;-88
2023/06/14 01:22:53;;;;;;;3.47;1.55;;;12.00;99.90;;;;;;5055269;28;20093;-89
2023/06/14 01:25:20;;;;;;;0.22;0.22;;;12.60;1.00;;;;;;5055729;28;20128;-88
2023/06/14 01:27:52;;;;;;;0.10;0.00;;;12.20;99.90;;;;;;5055181;28;20049;-88
2023/06/14 01:30:21;;;;;;;0.17;0.13;;;11.30;99.90;;;;;;5047406;28;20046;-89
2023/06/14 01:32:48;;;;;;;0.38;0.20;;;11.20;99.90;;;;;;5033892;28;20053;-89
2023/06/14 01:35:14;;;;;;;0.05;0.05;;;11.30;1.00;;;;;;5038978;28;20064;-89
2023/06/14 01:37:41;;;;;;;5.18;1.27;;;11.90;1.00;;;;;;5037573;28;20041;-89
2023/06/14 01:40:08;;;;;;;0.38;0.30;;;11.20;1.00;;;;;;5021238;28;20046;-89
2023/06/14 01:42:37;;;;;;;0.00;0.00;;;11.20;99.90;;;;;;5037911;28;20041;-89
2023/06/14 01:45:06;;;;;;;0.13;0.13;;;11.20;99.90;;;;;;5037678;28;20045;-88
2023/06/14 01:47:34;;;;;;;0.00;0.00;;;11.10;99.90;;;;;;5037665;28;20508;-88
2023/06/14 01:49:59;;;;;;;0.52;0.20;;;11.10;99.90;;;;;;5038399;28;20046;-88
2023/06/14 01:52:25;;;;;;;0.30;0.20;;;11.10;1.00;;;;;;5038063;28;20065;-88
2023/06/14 01:54:51;;;;;;;0.98;0.40;;;11.10;1.00;;;;;;5037825;28;20444;-89
2023/06/14 01:57:17;;;;;;;0.10;0.10;;;11.10;1.00;;;;;;5018945;28;20060;-89
2023/06/14 01:59:48;;;;;;;0.00;0.00;;;11.10;1.00;;;;;;5037154;28;20049;-89
2023/06/14 02:02:14;;;;;;;2.38;0.73;;;12.10;1.00;;;;;;5036885;28;20531;-88
2023/06/14 02:04:40;;;;;;;0.22;0.20;;;11.10;1.00;;;;;;5038634;28;20041;-88
2023/06/14 02:07:06;;;;;;;0.00;0.00;;;11.20;2.20;;;;;;5038132;28;20052;-89
2023/06/14 02:09:32;;;;;;;0.00;0.00;;;11.70;1.00;;;;;;5037806;28;20057;-88
2023/06/14 02:11:58;;;;;;;0.38;0.32;;;12.10;1.00;;;;;;5036012;28;20551;-88
2023/06/14 02:14:24;;;;;;;0.20;0.20;;;11.20;1.00;;;;;;5036796;28;20128;-88
2023/06/14 02:16:52;;;;;;;0.00;0.00;;;11.20;1.00;;;;;;5036984;28;20045;-88
2023/06/14 02:19:21;;;;;;;0.13;0.13;;;12.30;1.00;;;;;;5035703;28;20042;-87
2023/06/14 02:21:47;;;;;;;0.00;0.00;;;12.10;1.00;;;;;;5037056;28;20088;-88
2023/06/14 02:24:13;;;;;;;0.10;0.10;;;12.10;63.60;;;;;;5037041;28;20041;-88
2023/06/14 02:26:41;;;;;;;0.00;0.00;;;11.10;76.50;;;;;;5019047;28;20572;-88
2023/06/14 02:29:16;;;;;;;3.92;1.95;;;11.10;91.60;;;;;;5036045;28;20439;-88
2023/06/14 02:31:42;;;;;;;0.00;0.00;;;12.50;59.40;;;;;;5036350;28;20045;-88
2023/06/14 02:34:10;;;;;;;0.00;0.00;;;12.10;52.40;;;;;;5036031;28;20071;-88
2023/06/14 02:36:41;;;;;;;0.10;0.10;;;11.10;55.00;;;;;;5037896;28;20045;-88
2023/06/14 02:39:09;;;;;;;0.20;0.20;;;11.30;62.70;;;;;;5036453;28;20564;-88
2023/06/14 02:41:35;;;;;;;0.22;0.22;;;11.20;38.90;;;;;;5035061;28;20084;-88
2023/06/14 02:44:04;;;;;;;0.08;0.08;;;11.30;38.20;;;;;;5054345;28;20048;-89
2023/06/14 02:46:30;;;;;;;0.00;0.00;;;11.20;61.00;;;;;;5055609;28;20041;-88
2023/06/14 02:48:55;;;;;;;0.10;0.10;;;12.30;90.90;;;;;;5056217;28;20075;-89
2023/06/14 02:51:21;;;;;;;0.00;0.00;;;12.40;58.70;;;;;;5055296;28;20045;-88
2023/06/14 02:53:47;;;;;;;0.00;0.00;;;11.20;85.80;;;;;;5055548;28;20053;-89
2023/06/14 02:56:13;;;;;;;2.28;0.40;;;11.20;95.50;;;;;;5058997;28;20104;-88
2023/06/14 02:58:39;;;;;;;0.00;0.00;;;11.10;99.90;;;;;;5062829;28;20082;-89
2023/06/14 03:01:07;;;;;;;0.00;0.00;;;11.10;99.90;;;;;;5057514;28;20174;-90
2023/06/14 03:03:33;;;;;;;0.00;0.00;;;11.60;99.90;;;;;;5056241;28;20056;-88
2023/06/14 03:06:04;;;;;;;0.10;0.10;;;11.00;99.90;;;;;;5056851;28;20132;-88
2023/06/14 03:08:31;;;;;;;0.10;0.10;;;11.00;99.90;;;;;;5057226;28;20091;-88
2023/06/14 03:10:57;;;;;;;0.00;0.00;;;11.00;99.90;;;;;;5048054;28;20064;-88
2023/06/14 03:13:23;;;;;;;1.05;0.15;;;11.00;99.90;;;;;;5042292;28;20049;-88
2023/06/14 03:15:51;;;;;;;0.00;0.00;;;10.90;99.90;;;;;;5042880;28;20057;-87
2023/06/14 03:18:17;;;;;;;0.00;0.00;;;10.90;99.90;;;;;;5046021;28;20026;-88
2023/06/14 03:20:45;;;;;;;0.08;0.08;;;10.90;99.90;;;;;;5045355;28;20129;-88
2023/06/14 03:23:12;;;;;;;0.00;0.00;;;10.90;99.90;;;;;;5044467;28;20052;-88
2023/06/14 03:25:38;;;;;;;0.30;0.08;;;10.90;99.90;;;;;;5046433;28;20046;-87
2023/06/14 03:28:06;;;;;;;0.03;0.03;;;10.80;99.90;;;;;;5042535;28;20083;-88
2023/06/14 03:30:32;;;;;;;1.95;0.17;;;10.80;99.90;;;;;;5039286;28;20144;-86
2023/06/14 03:33:03;;;;;;;0.00;0.00;;;10.80;99.90;;;;;;5036185;28;20132;-86
2023/06/14 03:35:29;;;;;;;0.10;0.10;;;10.80;99.90;;;;;;5036690;28;20781;-86
2023/06/14 03:37:54;;;;;;;0.05;0.05;;;10.80;99.90;;;;;;5035011;28;20046;-86
2023/06/14 03:40:21;;;;;;;0.08;0.08;;;10.80;99.90;;;;;;5036691;28;20053;-86
2023/06/14 03:42:47;;;;;;;0.10;0.10;;;10.80;99.90;;;;;;5035407;28;20055;-86
2023/06/14 03:45:13;;;;;;;0.00;0.00;;;10.80;99.90;;;;;;5034451;28;20053;-87
2023/06/14 03:47:38;;;;;;;0.08;0.05;;;12.10;99.90;;;;;;5028330;28;20045;-87
2023/06/14 03:50:05;;;;;;;0.22;0.22;;;10.90;99.90;;;;;;5026945;28;20717;-86
2023/06/14 03:52:32;;;;;;;0.00;0.00;;;10.90;99.90;;;;;;5027279;28;20049;-86
2023/06/14 03:55:00;;;;;;;0.00;0.00;;;11.00;99.90;;;;;;5028042;28;20593;-86
2023/06/14 03:57:26;;;;;;;0.52;0.43;;;11.00;99.90;;;;;;5026247;28;20421;-86
2023/06/14 03:59:52;;;;;;;1.02;0.93;;;11.10;99.90;;;;;;5028596;28;20037;-86
2023/06/14 04:02:18;;;;;;;0.80;0.22;;;11.10;99.90;;;;;;5028521;28;20045;-87
2023/06/14 04:04:45;;;;;;;1.15;0.52;;;11.20;99.90;;;;;;5028582;28;20088;-87
2023/06/14 04:07:14;;;;;;;0.77;0.35;;;11.30;99.90;;;;;;5028071;28;20059;-86
2023/06/14 04:09:40;;;;;;;0.47;0.47;;;11.30;99.90;;;;;;5028127;28;20060;-87
2023/06/14 04:12:08;;;;;;;0.00;0.00;;;11.50;99.90;;;;;;5026685;28;20084;-87
2023/06/14 04:14:34;;;;;;;0.32;0.30;;;11.60;99.90;;;;;;5026804;28;20041;-86
2023/06/14 04:17:00;;;;;;;0.65;0.30;;;11.90;99.90;;;;;;5026739;28;20064;-87
2023/06/14 04:19:26;;;;;;;0.00;0.00;;;11.80;99.90;;;;;;5026715;28;20046;-86
2023/06/14 04:21:52;;;;;;;0.80;0.52;;;13.00;99.90;;;;;;5010231;28;20061;-87
2023/06/14 04:24:18;;;;;;;3.00;1.15;;;13.10;99.90;;;;;;5028135;28;20456;-86
2023/06/14 04:26:44;;;;;;;0.00;0.00;;;12.20;99.90;;;;;;5028129;28;20124;-87
2023/06/14 04:29:14;;;;;;;0.15;0.15;;;12.40;99.90;;;;;;5028060;28;20071;-87
2023/06/14 04:31:44;;;;;;;0.30;0.25;;;13.30;55.80;;;;;;5028197;28;20045;-87
2023/06/14 04:34:15;;;;;;;0.70;0.20;;;14.00;99.90;;;;;;5027971;28;20091;-87
2023/06/14 04:36:49;;;;;;;0.00;0.00;;;13.90;99.90;;;;;;5028021;28;20065;-86
2023/06/14 04:39:18;;;;;;;0.38;0.17;;;13.50;99.90;;;;;;5027526;28;20049;-87
2023/06/14 04:41:44;;;;;;;0.10;0.10;;;13.50;99.90;;;;;;5028088;28;20055;-87
2023/06/14 04:44:10;;;;;;;0.30;0.22;;;13.50;1.00;;;;;;5026113;28;20049;-86
2023/06/14 04:46:45;;;;;;;0.08;0.08;;;14.50;58.10;;;;;;5027715;28;20045;-87
2023/06/14 04:49:18;;;;;;;0.03;0.03;;;14.60;99.90;;;;;;5026148;28;20060;-86
2023/06/14 04:51:45;;;;;;;0.30;0.30;;;14.20;99.90;;;;;;5027938;28;20140;-87
2023/06/14 04:54:14;;;;;;;0.15;0.15;;;15.10;99.90;;;;;;5026163;28;20057;-87
2023/06/14 04:56:42;;;;;;;0.30;0.25;;;16.00;1.00;;;;;;5025961;28;20132;-87
2023/06/14 04:59:08;;;;;;;0.20;0.20;;;16.70;99.90;;;;;;5027868;28;20415;-87
2023/06/14 05:01:35;;;;;;;0.63;0.45;;;18.30;20.20;;;;;;5027403;28;20148;-87
2023/06/14 05:04:01;;;;;;;1.17;1.08;;;17.70;99.90;;;;;;5027387;28;20103;-87
2023/06/14 05:06:27;;;;;;;1.02;0.50;;;18.80;99.90;;;;;;5009391;28;20476;-87
2023/06/14 05:08:53;;;;;;;0.22;0.22;;;18.10;99.90;;;;;;5028123;28;20508;-87
2023/06/14 05:11:19;;;;;;;4.05;0.30;;;18.30;99.90;;;;;;5031586;28;20587;-87
2023/06/14 05:13:45;;;;;;;0.13;0.13;;;18.50;99.90;;;;;;5031876;28;20431;-87
2023/06/14 05:16:15;;;;;;;1.95;0.77;;;18.70;99.90;;;;;;5031451;28;20092;-87
2023/06/14 05:18:41;;;;;;;3.72;0.40;;;19.30;98.90;;;;;;5029868;28;20053;-87
2023/06/14 05:21:07;;;;;;;0.13;0.13;;;19.20;95.10;;;;;;5031003;28;20033;-87
2023/06/14 05:23:32;;;;;;;0.22;0.20;;;20.50;71.60;;;;;;5029854;28;20111;-87
2023/06/14 05:25:58;;;;;;;0.20;0.17;;;19.40;44.80;;;;;;5029575;28;20056;-87
2023/06/14 05:28:24;;;;;;;0.98;0.30;;;19.50;30.00;;;;;;5031429;28;20049;-87
2023/06/14 05:30:51;;;;;;;0.65;0.38;;;20.10;25.70;;;;;;5031603;28;20061;-87
2023/06/14 05:33:16;;;;;;;0.25;0.10;;;20.50;9.40;;;;;;5032439;28;20087;-88
2023/06/14 05:35:42;;;;;;;0.08;0.08;;;20.70;1.00;;;;;;5031113;28;20454;-88
2023/06/14 05:38:08;;;;;;;0.52;0.30;;;21.10;1.00;;;;;;5031058;28;20111;-87
2023/06/14 05:40:34;;;;;;;0.35;0.20;;;20.80;1.00;;;;;;5031006;28;20049;-87
2023/06/14 05:42:59;;;;;;;1.15;0.75;;;21.30;1.00;;;;;;5028886;28;20045;-87
2023/06/14 05:45:25;;;;;;;0.82;0.73;;;21.30;1.00;;;;;;5030660;28;20060;-87
2023/06/14 05:47:52;;;;;;;0.60;0.50;;;20.80;1.00;;;;;;5029129;28;20485;-87
2023/06/14 05:50:17;;;;;;;1.30;0.68;;;21.20;1.00;;;;;;5030704;28;20057;-87
2023/06/14 05:52:43;;;;;;;1.20;0.80;;;21.50;1.00;;;;;;5031015;28;20076;-87
2023/06/14 05:55:11;;;;;;;0.25;0.25;;;20.90;1.00;;;;;;5031004;28;20045;-87
2023/06/14 05:57:37;;;;;;;0.30;0.30;;;21.40;1.00;;;;;;5037856;28;20053;-87
2023/06/14 06:00:14;;;;;;;0.30;0.22;;;21.90;1.00;;;;;;5035733;28;20049;-87
2023/06/14 06:02:44;;;;;;;0.68;0.52;;;22.30;1.00;;;;;;5029193;28;20411;-88
2023/06/14 06:05:12;;;;;;;0.47;0.38;;;21.50;1.00;;;;;;5029195;28;20054;-88
2023/06/14 06:07:39;;;;;;;0.70;0.20;;;21.50;1.00;;;;;;5028665;28;20055;-88
2023/06/14 06:10:06;;;;;;;0.28;0.15;;;22.50;1.00;;;;;;5029173;28;20066;-88
2023/06/14 06:12:32;;;;;;;0.10;0.10;;;21.70;1.00;;;;;;5030630;28;20049;-88
2023/06/14 06:14:58;;;;;;;0.70;0.32;;;22.30;1.00;;;;;;5029131;28;20041;-88
2023/06/14 06:17:25;;;;;;;0.30;0.30;;;22.80;1.00;;;;;;5033941;28;20179;-87
2023/06/14 06:19:51;;;;;;;0.25;0.22;;;22.90;1.00;;;;;;5030953;28;20128;-86
2023/06/14 06:22:17;;;;;;;0.30;0.10;;;22.50;1.00;;;;;;5029428;28;20531;-86
2023/06/14 06:24:43;;;;;;;2.28;1.08;;;22.70;1.00;;;;;;5029176;28;20571;-86
2023/06/14 06:27:08;;;;;;;0.50;0.43;;;22.70;1.00;;;;;;5028986;28;20057;-86
2023/06/14 06:29:34;;;;;;;13.95;0.50;;;23.10;1.00;;;;;;5029346;28;20053;-86
2023/06/14 06:32:01;;;;;;;0.10;0.10;;;23.10;1.00;;;;;;5029352;28;20049;-86
2023/06/14 06:34:27;;;;;;;0.25;0.20;;;23.60;1.00;;;;;;5029254;28;20404;-87
2023/06/14 06:36:53;;;;;;;2.30;1.02;;;23.30;1.00;;;;;;5027212;28;20060;-86
2023/06/14 06:39:19;;;;;;;4.07;1.02;;;23.40;1.00;;;;;;5028325;28;20053;-85
2023/06/14 06:41:44;;;;;;;0.35;0.10;;;24.00;1.00;;;;;;5027858;28;20037;-86
2023/06/14 06:44:10;;;;;;;0.30;0.28;;;24.60;1.00;;;;;;5027526;28;20081;-85
2023/06/14 06:46:40;;;;;;;0.75;0.75;;;25.00;1.00;;;;;;5027652;28;20458;-85
2023/06/14 06:49:11;;;;;;;0.22;0.13;;;25.00;1.00;;;;;;5027792;28;20061;-85
2023/06/14 06:51:41;;;;;;;1.30;0.40;;;24.80;1.00;;;;;;5027448;28;20053;-85
2023/06/14 06:54:08;;;;;;;1.20;0.52;;;24.40;1.00;;;;;;5027176;28;20110;-84
2023/06/14 06:56:34;;;;;;;0.00;0.00;;;25.20;1.00;;;;;;5027338;28;20438;-85
2023/06/14 06:59:00;;;;;;;0.22;0.22;;;24.60;1.00;;;;;;5026997;28;20056;-84
2023/06/14 07:01:26;;;;;;;0.10;0.10;;;24.70;1.00;;;;;;5027084;28;20049;-85
2023/06/14 07:03:52;;;;;;;1.05;0.70;;;25.40;1.00;;;;;;5026950;28;20800;-85
2023/06/14 07:06:18;;;;;;;0.08;0.03;;;25.30;1.00;;;;;;5027220;28;20056;-84
2023/06/14 07:08:44;;;;;;;1.80;1.13;;;25.70;1.00;;;;;;5026738;28;20061;-85
2023/06/14 07:11:10;;;;;;;0.15;0.08;;;25.80;1.00;;;;;;5027158;28;20412;-85
2023/06/14 07:13:36;;;;;;;1.95;0.80;;;26.20;1.00;;;;;;5026901;28;20541;-85
2023/06/14 07:16:02;;;;;;;0.20;0.20;;;25.50;1.00;;;;;;5026780;28;20573;-85
2023/06/14 07:18:28;;;;;;;0.28;0.22;;;25.80;1.00;;;;;;5027099;28;20053;-85
2023/06/14 07:20:54;;;;;;;0.10;0.10;;;26.10;1.00;;;;;;5025208;28;20103;-85
2023/06/14 07:23:23;;;;;;;1.38;0.63;;;25.40;1.00;;;;;;5027338;28;20048;-86
2023/06/14 07:25:49;;;;;;;3.80;1.10;;;24.80;1.00;;;;;;5027291;28;20454;-86
2023/06/14 07:28:16;;;;;;;0.85;0.45;;;25.00;1.00;;;;;;5025576;28;20046;-85
2023/06/14 07:30:41;;;;;;;2.85;0.80;;;25.00;1.00;;;;;;5026809;28;20073;-85
2023/06/14 07:33:08;;;;;;;0.10;0.10;;;25.60;1.00;;;;;;5026495;28;20046;-86
2023/06/14 07:35:34;;;;;;;0.00;0.00;;;25.30;1.00;;;;;;5026925;28;20053;-85
2023/06/14 07:37:59;;;;;;;0.00;0.00;;;25.60;1.00;;;;;;5026826;28;20081;-86
2023/06/14 07:40:25;;;;;;;0.95;0.73;;;26.20;1.00;;;;;;5027010;28;20464;-85
2023/06/14 07:42:51;;;;;;;0.17;0.17;;;25.90;1.00;;;;;;5026656;28;20399;-85
2023/06/14 07:45:17;;;;;;;0.15;0.15;;;25.70;1.00;;;;;;5026331;28;20057;-86
2023/06/14 07:47:42;;;;;;;0.00;0.00;;;25.70;1.00;;;;;;5026483;28;20042;-86
2023/06/14 07:50:08;;;;;;;1.08;0.45;;;25.50;1.00;;;;;;5026836;28;20042;-86
2023/06/14 07:52:34;;;;;;;4.57;0.63;;;24.50;99.90;;;;;;5027180;28;20099;-86
2023/06/14 07:55:00;;;;;;;0.20;0.20;;;24.40;99.90;;;;;;5026628;28;20049;-86
2023/06/14 07:57:26;;;;;;;3.33;0.70;;;25.80;1.00;;;;;;5025781;28;20511;-86
2023/06/14 07:59:52;;;;;;;0.88;0.55;;;26.50;1.00;;;;;;5026906;28;20064;-86
2023/06/14 08:02:18;;;;;;;0.13;0.13;;;27.20;1.00;;;;;;5027167;28;20037;-87
2023/06/14 08:04:43;;;;;;;0.10;0.10;;;26.90;1.00;;;;;;5026871;28;20056;-86
2023/06/14 08:07:09;;;;;;;0.05;0.05;;;26.10;99.90;;;;;;5026641;28;20504;-87
2023/06/14 08:09:37;;;;;;;1.00;0.68;;;26.40;1.00;;;;;;5024911;28;20594;-86
2023/06/14 08:12:09;;;;;;;0.05;0.03;;;26.90;1.00;;;;;;5026555;28;20068;-86
2023/06/14 08:14:35;;;;;;;0.22;0.20;;;27.20;1.00;;;;;;5026538;28;20042;-85
2023/06/14 08:17:03;;;;;;;0.20;0.10;;;27.80;1.00;;;;;;5026045;28;20064;-86
2023/06/14 08:19:29;;;;;;;0.15;0.13;;;27.90;1.00;;;;;;5025951;28;20594;-86
2023/06/14 08:21:56;;;;;;;0.60;0.40;;;29.00;1.00;;;;;;5008381;28;20085;-86
2023/06/14 08:24:25;;;;;;;0.00;0.00;;;28.80;1.00;;;;;;5024732;28;20555;-86
2023/06/14 08:26:51;;;;;;;0.00;0.00;;;28.30;99.90;;;;;;5026375;28;20136;-85
2023/06/14 08:29:17;;;;;;;0.85;0.70;;;28.20;99.90;;;;;;5026112;28;20100;-85
2023/06/14 08:31:42;;;;;;;0.93;0.40;;;27.50;99.90;;;;;;5025948;28;20080;-86
2023/06/14 08:34:08;;;;;;;0.40;0.20;;;28.50;99.90;;;;;;5025940;28;20049;-86
2023/06/14 08:36:35;;;;;;;0.10;0.10;;;28.80;99.90;;;;;;5025982;28;20259;-86
2023/06/14 08:39:01;;;;;;;8.48;0.25;;;28.60;99.90;;;;;;5025649;28;20054;-86
2023/06/14 08:41:29;;;;;;;0.88;0.57;;;28.50;99.90;;;;;;5026089;28;20051;-86
2023/06/14 08:43:55;;;;;;;0.43;0.30;;;27.90;99.90;;;;;;5026358;28;20124;-86
2023/06/14 08:46:23;;;;;;;0.25;0.25;;;28.20;99.90;;;;;;5026179;28;20076;-85
2023/06/14 08:48:52;;;;;;;0.00;0.00;;;29.20;99.90;;;;;;5026678;28;20041;-85
2023/06/14 08:51:22;;;;;;;0.17;0.17;;;28.90;99.90;;;;;;5026561;28;20046;-86
2023/06/14 08:53:54;;;;;;;0.52;0.38;;;28.30;99.90;;;;;;5027360;28;20045;-86
2023/06/14 08:56:20;;;;;;;0.00;0.00;;;27.60;99.90;;;;;;5042719;28;20068;-87
2023/06/14 08:58:47;;;;;;;1.13;0.60;;;27.30;99.90;;;;;;5025892;28;20067;-86
2023/06/14 09:01:16;;;;;;;0.20;0.20;;;28.20;99.90;;;;;;5026078;28;20128;-87
2023/06/14 09:03:42;;;;;;;2.83;0.47;;;27.00;99.90;;;;;;5025836;28;20095;-85
2023/06/14 09:06:13;;;;;;;0.68;0.20;;;27.70;99.90;;;;;;5025579;28;20054;-85
2023/06/14 09:08:42;;;;;;;0.00;0.00;;;28.10;99.90;;;;;;5025665;28;20088;-85
2023/06/14 09:11:08;;;;;;;0.25;0.20;;;27.40;99.90;;;;;;5026026;28;20177;-86
2023/06/14 09:13:34;;;;;;;0.40;0.38;;;28.70;99.90;;;;;;5025826;28;20053;-85
2023/06/14 09:16:00;;;;;;;1.60;0.30;;;28.50;99.90;;;;;;5025005;28;20471;-85
2023/06/14 09:18:40;;;;;;;0.63;0.30;;;29.00;99.90;;;;;;5025385;28;20049;-85
2023/06/14 09:21:07;;;;;;;0.95;0.45;;;28.40;99.90;;;;;;5010682;28;20053;-84
2023/06/14 09:23:41;;;;;;;0.15;0.10;;;28.30;99.90;;;;;;5012299;28;20124;-84
2023/06/14 09:26:15;;;;;;;0.70;0.43;;;28.90;99.90;;;;;;5005922;28;20053;-84
2023/06/14 09:28:48;;;;;;;0.10;0.10;;;29.80;99.90;;;;;;5005493;28;20085;-84
2023/06/14 09:31:16;;;;;;;0.10;0.10;;;29.70;99.90;;;;;;5005464;28;20050;-84
2023/06/14 09:33:47;;;;;;;0.13;0.13;;;28.30;99.90;;;;;;5029745;28;20048;-85
2023/06/14 09:36:24;;;;;;;1.63;0.85;;;28.50;99.90;;;;;;5045230;28;20140;-85
2023/06/14 09:38:57;;;;;;;1.23;0.63;;;28.70;99.90;;;;;;5044286;28;20133;-84
2023/06/14 09:41:36;;;;;;;0.00;0.00;;;29.10;99.90;;;;;;5045128;28;20052;-85
2023/06/14 09:44:04;;;;;;;1.25;1.15;;;30.30;99.90;;;;;;5045122;28;20068;-84
2023/06/14 09:46:31;;;;;;;2.72;0.77;;;31.20;99.90;;;;;;5045164;28;20483;-85
2023/06/14 09:49:00;;;;;;;0.10;0.10;;;30.20;99.90;;;;;;5045147;28;20064;-85
2023/06/14 09:51:27;;;;;;;0.20;0.17;;;29.70;99.90;;;;;;5047976;28;20041;-85
2023/06/14 09:53:58;;;;;;;0.30;0.20;;;29.90;99.90;;;;;;5051444;28;20049;-85
2023/06/14 09:56:30;;;;;;;0.28;0.17;;;30.40;99.90;;;;;;5048718;28;20049;-85
2023/06/14 09:58:57;;;;;;;0.47;0.30;;;30.00;99.90;;;;;;5048495;28;20041;-85
2023/06/14 10:01:28;;;;;;;1.33;0.10;;;29.90;99.90;;;;;;5049022;28;20049;-87
2023/06/14 10:04:00;;;;;;;0.10;0.10;;;29.60;99.90;;;;;;5049223;28;20045;-87
2023/06/14 10:06:28;;;;;;;0.20;0.20;;;29.00;99.90;;;;;;5048767;28;20072;-87
2023/06/14 10:08:57;;;;;;;0.50;0.30;;;28.90;99.90;;;;;;5048335;28;20123;-87
2023/06/14 10:11:24;;;;;;;1.00;0.43;;;28.80;99.90;;;;;;5051602;28;20056;-87
2023/06/14 10:13:50;;;;;;;1.95;1.33;;;28.70;99.90;;;;;;5049244;28;20056;-87
2023/06/14 10:16:47;;;;;;;3.95;0.25;;;28.50;99.90;;;;;;5048256;28;20049;-87
2023/06/14 10:19:21;;;;;;;3.70;0.63;;;28.40;99.90;;;;;;5043830;28;20060;-87
2023/06/14 10:22:06;;;;;;;0.17;0.10;;;27.80;99.90;;;;;;5050761;28;20059;-88
2023/06/14 10:24:43;;;;;;;0.90;0.28;;;27.80;99.90;;;;;;5047219;28;20661;-87
2023/06/14 10:27:10;;;;;;;0.47;0.40;;;27.70;99.90;;;;;;5045581;28;20111;-87
2023/06/14 10:29:55;;;;;;;0.00;0.00;;;27.00;99.90;;;;;;5048454;28;20151;-87
2023/06/14 10:32:23;;;;;;;;;;;26.60;99.90;;;;;;5022037;28;20045;-88
2023/06/14 10:35:06;;;;;;;0.00;0.00;;;26.60;99.90;;;;;;5026609;28;20028;-89
2023/06/14 10:37:32;;;;;;;0.25;0.20;;;27.30;99.90;;;;;;5025184;28;20056;-90
2023/06/14 10:39:58;;;;;;;5.93;0.68;;;27.60;99.90;;;;;;5027664;28;20109;-89
2023/06/14 10:42:31;;;;;;;0.35;0.30;;;27.50;99.90;;;;;;5029571;28;20041;-89
2023/06/14 10:45:00;;;;;;;0.40;0.20;;;28.10;99.90;;;;;;5032566;28;20053;-89
2023/06/14 10:47:38;;;;;;;0.03;0.03;;;28.30;99.90;;;;;;5033126;28;20072;-89
2023/06/14 10:50:08;;;;;;;4.57;0.85;;;28.10;99.90;;;;;;5029369;28;20447;-89
2023/06/14 10:52:38;;;;;;;0.10;0.10;;;28.10;99.90;;;;;;5026710;28;20045;-89
2023/06/14 10:55:11;;;;;;;0.10;0.10;;;27.10;99.90;;;;;;5025001;28;20049;-89
2023/06/14 10:57:51;;;;;;;0.90;0.43;;;27.40;99.90;;;;;;5026336;28;20050;-89
2023/06/14 11:00:21;;;;;;;0.50;0.50;;;27.50;99.90;;;;;;5025105;28;20137;-89
2023/06/14 11:03:07;;;;;;;0.00;0.00;;;27.40;99.90;;;;;;5025231;28;20113;-89
2023/06/14 11:05:44;;;;;;;0.10;0.10;;;28.10;99.90;;;;;;5026811;28;20045;-89
2023/06/14 11:08:16;;;;;;;0.00;0.00;;;28.00;99.90;;;;;;5026290;28;20057;-89
2023/06/14 11:10:45;;;;;;;0.10;0.00;;;27.60;99.90;;;;;;5027234;28;20064;-89
2023/06/14 11:13:11;;;;;;;0.43;0.40;;;26.60;99.90;;;;;;5026780;28;20049;-89
2023/06/14 11:15:38;;;;;;;1.33;0.57;;;27.00;99.90;;;;;;5025874;28;20061;-90
2023/06/14 11:18:09;;;;;;;0.17;0.08;;;26.80;99.90;;;;;;5034782;28;20037;-90
2023/06/14 11:20:36;;;;;;;2.45;0.25;;;26.90;99.90;;;;;;5040756;28;20069;-89
2023/06/14 11:23:03;;;;;;;0.10;0.10;;;27.20;99.90;;;;;;5041894;28;20137;-89
2023/06/14 11:25:29;;;;;;;2.63;0.82;;;27.30;99.90;;;;;;5034841;28;20049;-90
2023/06/14 11:27:56;;;;;;;0.00;0.00;;;27.40;99.90;;;;;;5043720;28;20101;-89
2023/06/14 11:30:22;;;;;;;0.00;0.00;;;27.60;99.90;;;;;;5044489;28;20045;-89
2023/06/14 11:32:50;;;;;;;0.93;0.57;;;28.00;99.90;;;;;;5045587;28;20056;-90
2023/06/14 11:35:17;;;;;;;0.20;0.20;;;27.90;99.90;;;;;;5043463;28;20373;-89
2023/06/14 11:37:44;;;;;;;0.47;0.32;;;29.00;99.90;;;;;;5043251;28;20089;-89
2023/06/14 11:40:11;;;;;;;0.00;0.00;;;28.50;99.90;;;;;;5044875;28;20041;-89
2023/06/14 11:42:38;;;;;;;0.10;0.10;;;28.00;99.90;;;;;;5035146;28;20065;-89
2023/06/14 11:45:07;;;;;;;0.00;0.00;;;28.40;99.90;;;;;;5025830;28;20064;-89
2023/06/14 11:47:33;;;;;;;0.00;0.00;;;29.70;99.90;;;;;;5024004;28;20068;-90
2023/06/14 11:50:00;;;;;;;0.10;0.10;;;29.40;99.90;;;;;;5025603;28;20048;-89
2023/06/14 11:52:25;;;;;;;0.10;0.10;;;30.10;99.90;;;;;;5027637;28;20129;-89
2023/06/14 11:54:52;;;;;;;0.15;0.15;;;31.20;99.90;;;;;;5035274;28;20053;-90
2023/06/14 11:57:18;;;;;;;0.43;0.32;;;31.50;99.90;;;;;;5024314;28;20067;-90
2023/06/14 11:59:45;;;;;;;0.50;0.28;;;31.80;99.90;;;;;;5025333;28;20057;-90
2023/06/14 12:02:15;;;;;;;0.08;0.08;;;31.60;99.90;;;;;;5024028;28;20061;-89
2023/06/14 12:04:41;;;;;;;1.35;0.95;;;31.90;99.90;;;;;;5025133;28;20045;-89
2023/06/14 12:07:17;;;;;;;0.00;0.00;;;32.10;99.90;;;;;;5025768;28;20515;-90
2023/06/14 12:09:55;;;;;;;;;;;31.50;99.90;;;;;;5024972;28;20065;-90
2023/06/14 12:12:22;;;;;;;0.55;0.35;;;32.00;99.90;;;;;;5024802;28;19936;-89
2023/06/14 12:14:50;;;;;;;0.32;0.10;;;30.80;99.90;;;;;;5023090;28;20439;-90
2023/06/14 12:17:17;;;;;;;0.20;0.20;;;30.50;99.90;;;;;;5024608;28;20407;-89
2023/06/14 12:19:44;;;;;;;0.10;0.10;;;29.90;99.90;;;;;;5023145;28;20057;-90
2023/06/14 12:22:11;;;;;;;3.15;0.60;;;30.10;99.90;;;;;;5024485;28;20157;-88
2023/06/14 12:24:37;;;;;;;0.00;0.00;;;30.40;99.90;;;;;;5024981;28;20116;-88
2023/06/14 12:27:03;;;;;;;0.00;0.00;;;30.40;99.90;;;;;;5023045;28;20132;-89
2023/06/14 12:29:30;;;;;;;0.30;0.10;;;30.30;99.90;;;;;;5024992;28;20157;-88
2023/06/14 12:31:56;;;;;;;0.70;0.50;;;30.90;99.90;;;;;;5023344;28;20549;-89
2023/06/14 12:34:27;;;;;;;0.40;0.40;;;31.00;99.90;;;;;;5024664;28;20049;-90
2023/06/14 12:36:56;;;;;;;0.00;0.00;;;30.40;99.90;;;;;;5023542;28;20049;-88
2023/06/14 12:39:22;;;;;;;0.10;0.10;;;30.00;99.90;;;;;;5023341;28;20076;-88
2023/06/14 12:41:48;;;;;;;0.85;0.65;;;31.10;99.90;;;;;;5024796;28;20051;-88
2023/06/14 12:44:15;;;;;;;0.55;0.15;;;30.30;99.90;;;;;;5022901;28;20056;-88
2023/06/14 12:46:42;;;;;;;0.10;0.10;;;31.10;99.90;;;;;;5040588;28;20053;-89
2023/06/14 12:49:10;;;;;;;0.55;0.38;;;31.80;99.90;;;;;;5008693;28;20060;-89
2023/06/14 12:51:35;;;;;;;0.00;0.00;;;31.40;99.90;;;;;;5023322;28;20045;-89
2023/06/14 12:54:01;;;;;;;0.38;0.38;;;31.30;99.90;;;;;;5023972;28;20504;-88